Time;durP1;ratioP1;P1;durP2;ratioP2;P2;SDS_P1;SDS_P2;PMS_P1;PMS_P2;Temp;Humidity;BMP_temperature;BMP_pressure;BME280_temperature;BME280_humidity;BME280_pressure;Samples;Min_cycle;Max_cycle;Signal;HPM_P1;HPM_P2
2024/01/14 00:01:33;;;;;;;0.00;0.00;;;25.80;38.90;;;;;;5011345;28;20234;-44
2024/01/14 00:04:04;;;;;;;0.00;0.00;;;25.90;39.00;;;;;;5011868;28;20197;-44
2024/01/14 00:06:36;;;;;;;0.00;0.00;;;25.90;38.90;;;;;;5011929;28;20227;-47
2024/01/14 00:09:10;;;;;;;0.00;0.00;;;25.90;38.90;;;;;;5012011;28;20216;-45
2024/01/14 00:11:41;;;;;;;0.00;0.00;;;25.90;39.00;;;;;;5011781;28;20627;-45
2024/01/14 00:14:12;;;;;;;0.00;0.00;;;25.90;39.00;;;;;;5011819;28;20205;-46
2024/01/14 00:16:42;;;;;;;0.00;0.00;;;25.90;39.00;;;;;;5011538;28;20658;-45
2024/01/14 00:19:13;;;;;;;0.00;0.00;;;25.90;39.00;;;;;;5011132;28;20617;-49
2024/01/14 00:21:45;;;;;;;0.00;0.00;;;25.90;39.00;;;;;;5011470;28;20229;-46
2024/01/14 00:24:17;;;;;;;0.00;0.00;;;25.90;39.00;;;;;;5018313;28;20192;-45
2024/01/14 00:26:48;;;;;;;0.00;0.00;;;25.90;39.00;;;;;;5030840;28;20231;-43
2024/01/14 00:29:19;;;;;;;0.00;0.00;;;26.00;39.10;;;;;;5031459;28;20200;-47
2024/01/14 00:31:49;;;;;;;0.00;0.00;;;26.00;39.10;;;;;;5031029;28;20212;-44
2024/01/14 00:34:20;;;;;;;0.00;0.00;;;26.00;39.10;;;;;;5030344;28;20538;-44
2024/01/14 00:36:52;;;;;;;0.00;0.00;;;26.00;39.20;;;;;;5031038;28;20697;-43
2024/01/14 00:39:23;;;;;;;0.00;0.00;;;26.00;39.20;;;;;;5031285;28;20659;-45
2024/01/14 00:41:54;;;;;;;0.00;0.00;;;26.00;39.20;;;;;;5031093;28;20255;-44
2024/01/14 00:44:24;;;;;;;0.00;0.00;;;26.00;39.20;;;;;;5031103;28;20544;-44
2024/01/14 00:46:55;;;;;;;0.00;0.00;;;26.00;39.20;;;;;;5030397;28;20474;-46
2024/01/14 00:49:25;;;;;;;0.00;0.00;;;26.00;39.20;;;;;;5030388;28;20203;-46
2024/01/14 00:51:58;;;;;;;0.00;0.00;;;26.10;39.30;;;;;;5030987;28;20216;-44
2024/01/14 00:54:29;;;;;;;0.00;0.00;;;26.10;39.30;;;;;;5031208;28;20203;-44
2024/01/14 00:56:59;;;;;;;0.00;0.00;;;26.10;39.30;;;;;;5030766;28;20199;-44
2024/01/14 00:59:30;;;;;;;0.00;0.00;;;26.10;39.30;;;;;;5030531;28;20204;-45
2024/01/14 01:02:00;;;;;;;0.00;0.00;;;26.20;39.50;;;;;;5030564;28;20220;-45
2024/01/14 01:04:31;;;;;;;0.00;0.00;;;26.20;39.50;;;;;;5030718;28;20207;-46
2024/01/14 01:07:04;;;;;;;0.00;0.00;;;26.20;39.40;;;;;;5030681;28;20234;-46
2024/01/14 01:09:34;;;;;;;0.00;0.00;;;26.20;39.50;;;;;;5031019;28;20364;-46
2024/01/14 01:12:05;;;;;;;0.00;0.00;;;26.20;39.50;;;;;;5030940;28;20212;-45
2024/01/14 01:14:36;;;;;;;0.00;0.00;;;26.20;39.50;;;;;;5031150;28;20283;-49
2024/01/14 01:17:06;;;;;;;0.03;0.03;;;26.20;39.50;;;;;;5031074;28;20200;-45
2024/01/14 01:19:37;;;;;;;0.00;0.00;;;26.20;39.50;;;;;;5031013;28;20211;-46
2024/01/14 01:22:09;;;;;;;0.00;0.00;;;26.20;39.50;;;;;;5030796;28;20232;-46
2024/01/14 01:24:41;;;;;;;0.00;0.00;;;26.20;39.50;;;;;;5030984;28;20215;-45
2024/01/14 01:27:11;;;;;;;0.00;0.00;;;26.30;39.70;;;;;;5030859;28;20637;-46
2024/01/14 01:29:42;;;;;;;0.00;0.00;;;26.30;39.70;;;;;;5030802;28;20200;-46
2024/01/14 01:32:13;;;;;;;0.00;0.00;;;26.30;39.70;;;;;;5030654;28;20217;-42
2024/01/14 01:34:44;;;;;;;0.00;0.00;;;26.30;39.70;;;;;;5030019;28;20192;-45
2024/01/14 01:37:17;;;;;;;0.00;0.00;;;26.30;39.80;;;;;;5033801;28;20211;-43
2024/01/14 01:39:48;;;;;;;0.00;0.00;;;26.30;39.70;;;;;;5034196;28;20200;-46
2024/01/14 01:42:19;;;;;;;0.10;0.10;;;26.30;39.80;;;;;;5033635;28;20216;-47
2024/01/14 01:44:49;;;;;;;0.00;0.00;;;26.40;39.80;;;;;;5034125;28;20196;-45
2024/01/14 01:47:21;;;;;;;0.00;0.00;;;26.40;39.90;;;;;;5033926;28;20504;-45
2024/01/14 01:49:51;;;;;;;0.00;0.00;;;26.40;39.90;;;;;;5033675;28;20197;-46
2024/01/14 01:52:25;;;;;;;0.00;0.00;;;26.50;40.00;;;;;;5034267;28;20227;-46
2024/01/14 01:54:56;;;;;;;0.00;0.00;;;26.50;40.00;;;;;;5033879;28;20199;-44
2024/01/14 01:57:28;;;;;;;0.00;0.00;;;26.50;40.00;;;;;;5034077;28;20605;-44
2024/01/14 01:59:59;;;;;;;0.00;0.00;;;26.50;40.00;;;;;;5034236;28;20200;-43
2024/01/14 02:02:30;;;;;;;0.00;0.00;;;26.50;40.10;;;;;;5033283;28;20220;-46
2024/01/14 02:05:00;;;;;;;0.00;0.00;;;26.50;40.20;;;;;;5033426;28;20251;-43
2024/01/14 02:07:33;;;;;;;0.00;0.00;;;26.60;40.40;;;;;;5033667;28;20235;-43
2024/01/14 02:10:04;;;;;;;0.00;0.00;;;26.60;40.50;;;;;;5033804;28;20526;-45
2024/01/14 02:12:35;;;;;;;0.00;0.00;;;26.70;40.60;;;;;;5033788;28;20216;-44
2024/01/14 02:15:06;;;;;;;0.00;0.00;;;26.70;40.60;;;;;;5033995;28;20204;-43
2024/01/14 02:17:36;;;;;;;0.00;0.00;;;26.70;40.70;;;;;;5033515;28;20200;-46
2024/01/14 02:20:08;;;;;;;0.00;0.00;;;26.70;40.70;;;;;;5033175;28;20196;-43
2024/01/14 02:22:46;;;;;;;0.00;0.00;;;26.80;40.80;;;;;;5033082;28;20232;-47
2024/01/14 02:25:19;;;;;;;0.00;0.00;;;26.80;40.90;;;;;;5033310;28;20196;-44
2024/01/14 02:27:49;;;;;;;0.00;0.00;;;26.80;40.90;;;;;;5032968;28;20235;-43
2024/01/14 02:30:20;;;;;;;0.00;0.00;;;26.80;40.90;;;;;;5032875;28;20192;-45
2024/01/14 02:32:52;;;;;;;0.00;0.00;;;26.90;41.00;;;;;;5032793;28;20254;-43
2024/01/14 02:35:22;;;;;;;0.00;0.00;;;26.80;41.00;;;;;;5033123;28;20301;-42
2024/01/14 02:37:54;;;;;;;0.00;0.00;;;26.90;41.10;;;;;;5033174;28;20227;-43
2024/01/14 02:40:27;;;;;;;0.00;0.00;;;26.90;41.10;;;;;;5033211;28;20200;-42
2024/01/14 02:42:57;;;;;;;0.00;0.00;;;26.90;41.10;;;;;;5032385;28;20262;-44
2024/01/14 02:45:31;;;;;;;0.00;0.00;;;27.00;41.20;;;;;;5031909;28;20254;-42
2024/01/14 02:48:02;;;;;;;0.00;0.00;;;27.00;41.20;;;;;;5031575;28;20255;-42
2024/01/14 02:50:32;;;;;;;0.00;0.00;;;27.00;41.20;;;;;;5032637;28;20200;-42
2024/01/14 02:53:03;;;;;;;0.00;0.00;;;27.00;41.10;;;;;;5033140;28;20216;-42
2024/01/14 02:55:35;;;;;;;0.00;0.00;;;27.00;41.20;;;;;;5032889;28;20558;-43
2024/01/14 02:58:06;;;;;;;0.00;0.00;;;27.10;41.20;;;;;;5032600;28;20196;-44
2024/01/14 03:00:37;;;;;;;0.00;0.00;;;27.10;41.20;;;;;;5032761;28;20200;-44
2024/01/14 03:03:08;;;;;;;0.00;0.00;;;27.10;41.20;;;;;;5032737;28;20258;-44
2024/01/14 03:05:38;;;;;;;0.00;0.00;;;27.20;41.20;;;;;;5032746;28;20667;-45
2024/01/14 03:08:09;;;;;;;0.00;0.00;;;27.20;41.20;;;;;;5032550;28;20227;-42
2024/01/14 03:10:41;;;;;;;0.00;0.00;;;27.20;41.20;;;;;;5032940;28;20673;-43
2024/01/14 03:13:13;;;;;;;0.00;0.00;;;27.20;41.20;;;;;;5033094;28;20200;-45
2024/01/14 03:15:44;;;;;;;0.00;0.00;;;27.20;41.30;;;;;;5032150;28;20250;-42
2024/01/14 03:18:15;;;;;;;0.00;0.00;;;27.30;41.30;;;;;;5031825;28;20196;-40
2024/01/14 03:20:46;;;;;;;0.00;0.00;;;27.30;41.30;;;;;;5032092;28;20196;-43
2024/01/14 03:23:16;;;;;;;0.00;0.00;;;27.30;41.30;;;;;;5032226;28;20691;-42
2024/01/14 03:25:49;;;;;;;0.00;0.00;;;27.40;41.40;;;;;;5032285;28;20211;-42
2024/01/14 03:28:20;;;;;;;0.00;0.00;;;27.40;41.40;;;;;;5032436;28;20224;-43
2024/01/14 03:30:50;;;;;;;0.00;0.00;;;27.40;41.40;;;;;;5032162;28;20192;-41
2024/01/14 03:33:21;;;;;;;0.00;0.00;;;27.40;41.40;;;;;;5032370;28;20219;-42
2024/01/14 03:35:51;;;;;;;0.00;0.00;;;27.40;41.40;;;;;;5031924;28;20234;-43
2024/01/14 03:38:22;;;;;;;0.00;0.00;;;27.50;41.50;;;;;;5029259;28;20216;-41
2024/01/14 03:40:54;;;;;;;0.00;0.00;;;27.50;41.40;;;;;;5031734;28;20211;-43
2024/01/14 03:43:25;;;;;;;0.00;0.00;;;27.50;41.40;;;;;;5031817;28;20188;-46
2024/01/14 03:45:56;;;;;;;0.00;0.00;;;27.50;41.30;;;;;;5030928;28;20195;-43
2024/01/14 03:48:27;;;;;;;0.00;0.00;;;27.60;41.40;;;;;;5031582;28;20227;-44
2024/01/14 03:50:57;;;;;;;0.00;0.00;;;27.60;41.30;;;;;;5031665;28;20192;-46
2024/01/14 03:53:28;;;;;;;0.00;0.00;;;27.60;41.30;;;;;;5031734;28;20192;-45
2024/01/14 03:56:00;;;;;;;0.00;0.00;;;27.60;41.30;;;;;;5031500;28;20196;-46
2024/01/14 03:58:31;;;;;;;0.00;0.00;;;27.60;41.30;;;;;;5028175;28;20184;-45
2024/01/14 04:01:01;;;;;;;0.00;0.00;;;27.60;41.30;;;;;;5031282;28;20590;-46
2024/01/14 04:03:32;;;;;;;0.00;0.00;;;27.60;41.30;;;;;;5028877;28;20191;-44
2024/01/14 04:06:08;;;;;;;0.00;0.00;;;27.60;41.20;;;;;;5031517;28;20204;-45
2024/01/14 04:08:39;;;;;;;0.00;0.00;;;27.70;41.30;;;;;;5031784;28;20637;-46
2024/01/14 04:11:11;;;;;;;0.00;0.00;;;27.70;41.20;;;;;;5031960;28;20227;-45
2024/01/14 04:13:42;;;;;;;0.00;0.00;;;27.70;41.10;;;;;;5031747;28;20214;-47
2024/01/14 04:16:13;;;;;;;0.00;0.00;;;27.70;41.10;;;;;;5031653;28;20203;-44
2024/01/14 04:18:43;;;;;;;0.00;0.00;;;27.80;41.10;;;;;;5031386;28;20188;-45
2024/01/14 04:21:24;;;;;;;0.00;0.00;;;27.80;41.10;;;;;;5029873;28;20224;-42
2024/01/14 04:23:54;;;;;;;0.00;0.00;;;27.80;41.10;;;;;;5022454;28;20661;-48
2024/01/14 04:26:27;;;;;;;0.00;0.00;;;27.80;41.00;;;;;;5027494;28;20246;-46
2024/01/14 04:28:58;;;;;;;0.00;0.00;;;27.80;41.10;;;;;;5026902;28;20715;-46
2024/01/14 04:31:28;;;;;;;0.00;0.00;;;27.90;41.20;;;;;;5028286;28;20224;-46
2024/01/14 04:34:03;;;;;;;0.00;0.00;;;27.90;41.20;;;;;;5026959;28;20582;-45
2024/01/14 04:36:34;;;;;;;0.00;0.00;;;27.90;41.20;;;;;;5027576;28;20203;-45
2024/01/14 04:39:04;;;;;;;0.00;0.00;;;27.90;41.20;;;;;;5026571;28;20283;-47
2024/01/14 04:41:37;;;;;;;0.00;0.00;;;27.90;41.20;;;;;;5027887;28;20231;-46
2024/01/14 04:44:07;;;;;;;0.00;0.00;;;28.00;41.20;;;;;;5027095;28;20192;-47
2024/01/14 04:46:38;;;;;;;0.00;0.00;;;28.00;41.20;;;;;;5027614;28;20207;-44
2024/01/14 04:49:09;;;;;;;0.00;0.00;;;28.00;41.20;;;;;;5027321;28;20239;-44
2024/01/14 04:51:40;;;;;;;0.00;0.00;;;28.00;41.20;;;;;;5025547;28;20237;-46
2024/01/14 04:54:11;;;;;;;0.00;0.00;;;28.10;41.30;;;;;;5026539;28;20294;-45
2024/01/14 04:56:44;;;;;;;0.00;0.00;;;28.10;41.20;;;;;;5007730;28;20215;-47
2024/01/14 04:59:14;;;;;;;0.00;0.00;;;28.10;41.20;;;;;;5008204;28;20204;-44
2024/01/14 05:01:45;;;;;;;0.00;0.00;;;28.10;41.20;;;;;;5007395;28;20252;-45
2024/01/14 05:04:16;;;;;;;0.00;0.00;;;28.10;41.20;;;;;;5007198;28;20516;-44
2024/01/14 05:06:46;;;;;;;0.00;0.00;;;28.20;41.30;;;;;;5027164;28;20210;-48
2024/01/14 05:09:17;;;;;;;0.00;0.00;;;28.20;41.20;;;;;;5027547;28;20227;-47
2024/01/14 05:11:49;;;;;;;0.00;0.00;;;28.20;41.20;;;;;;5030167;28;20715;-47
2024/01/14 05:14:20;;;;;;;0.00;0.00;;;28.20;41.20;;;;;;5030447;28;20207;-47
2024/01/14 05:16:51;;;;;;;0.00;0.00;;;28.30;41.20;;;;;;5030793;28;20258;-44
2024/01/14 05:19:22;;;;;;;0.00;0.00;;;28.30;41.20;;;;;;5029423;28;20204;-45
2024/01/14 05:21:54;;;;;;;0.00;0.00;;;28.30;41.20;;;;;;5030660;28;20232;-45
2024/01/14 05:24:25;;;;;;;0.00;0.00;;;28.30;41.20;;;;;;5030767;28;20253;-45
2024/01/14 05:26:58;;;;;;;0.00;0.00;;;28.30;41.20;;;;;;5031098;28;20200;-45
2024/01/14 05:29:28;;;;;;;0.00;0.00;;;28.30;41.20;;;;;;5031090;28;20318;-44
2024/01/14 05:31:59;;;;;;;0.00;0.00;;;28.40;41.30;;;;;;5030129;28;20220;-42
2024/01/14 05:34:29;;;;;;;0.00;0.00;;;28.40;41.20;;;;;;5030111;28;20381;-46
2024/01/14 05:37:01;;;;;;;0.00;0.00;;;28.40;41.30;;;;;;5030105;28;20200;-46
2024/01/14 05:39:32;;;;;;;0.00;0.00;;;28.40;41.30;;;;;;5030952;28;20682;-44
2024/01/14 05:42:05;;;;;;;0.00;0.00;;;28.40;41.30;;;;;;5031065;28;20319;-42
2024/01/14 05:44:35;;;;;;;0.00;0.00;;;28.40;41.30;;;;;;5030822;28;20547;-42
2024/01/14 05:47:06;;;;;;;0.00;0.00;;;28.40;41.20;;;;;;5030310;28;20226;-45
2024/01/14 05:49:40;;;;;;;0.00;0.00;;;28.50;41.20;;;;;;5028939;28;20644;-48
2024/01/14 05:52:10;;;;;;;0.00;0.00;;;28.40;41.10;;;;;;5027588;28;20626;-45
2024/01/14 05:54:44;;;;;;;0.00;0.00;;;28.50;41.10;;;;;;5030831;28;20200;-43
2024/01/14 05:57:17;;;;;;;0.00;0.00;;;28.50;41.00;;;;;;5030280;28;20731;-41
2024/01/14 05:59:47;;;;;;;0.00;0.00;;;28.50;41.00;;;;;;5030844;28;20690;-45
2024/01/14 06:02:18;;;;;;;0.00;0.00;;;28.60;41.10;;;;;;5030758;28;20594;-44
2024/01/14 06:04:49;;;;;;;0.00;0.00;;;28.60;41.00;;;;;;5029301;28;20196;-42
2024/01/14 06:07:19;;;;;;;0.00;0.00;;;28.60;41.00;;;;;;5030584;28;20588;-44
2024/01/14 06:09:50;;;;;;;0.00;0.00;;;28.60;41.00;;;;;;5029918;28;20285;-43
2024/01/14 06:12:22;;;;;;;0.00;0.00;;;28.60;40.90;;;;;;5030117;28;20242;-43
2024/01/14 06:14:53;;;;;;;0.00;0.00;;;28.60;40.90;;;;;;5029998;28;20223;-42
2024/01/14 06:17:24;;;;;;;0.00;0.00;;;28.70;41.00;;;;;;5029836;28;20203;-42
2024/01/14 06:19:54;;;;;;;0.00;0.00;;;28.70;41.00;;;;;;5029462;28;20207;-42
2024/01/14 06:22:25;;;;;;;0.00;0.00;;;28.70;41.00;;;;;;5028691;28;20228;-43
2024/01/14 06:24:55;;;;;;;0.00;0.00;;;28.70;41.00;;;;;;5030068;28;20204;-46
2024/01/14 06:27:29;;;;;;;0.00;0.00;;;28.70;41.00;;;;;;5029116;28;20204;-44
2024/01/14 06:30:01;;;;;;;0.00;0.00;;;28.70;41.00;;;;;;5030091;28;20239;-43
2024/01/14 06:32:31;;;;;;;0.00;0.00;;;28.70;41.00;;;;;;5029198;28;20505;-45
2024/01/14 06:35:03;;;;;;;0.00;0.00;;;28.70;41.00;;;;;;5032671;28;20540;-47
2024/01/14 06:37:33;;;;;;;0.00;0.00;;;28.70;41.00;;;;;;5033325;28;20668;-44
2024/01/14 06:40:05;;;;;;;0.00;0.00;;;28.80;40.90;;;;;;5033558;28;20200;-45
2024/01/14 06:42:37;;;;;;;0.00;0.00;;;28.70;40.80;;;;;;5032952;28;20261;-44
2024/01/14 06:45:08;;;;;;;0.00;0.00;;;28.80;40.70;;;;;;5032903;28;20410;-44
2024/01/14 06:47:43;;;;;;;0.00;0.00;;;28.80;40.70;;;;;;5032644;28;20204;-44
2024/01/14 06:50:14;;;;;;;0.00;0.00;;;28.80;40.70;;;;;;5032109;28;20218;-45
2024/01/14 06:52:44;;;;;;;0.00;0.00;;;28.80;40.70;;;;;;5033358;28;20223;-45
2024/01/14 06:55:16;;;;;;;0.00;0.00;;;28.80;40.70;;;;;;5032833;28;20203;-44
2024/01/14 06:57:48;;;;;;;0.00;0.00;;;28.90;40.70;;;;;;5032831;28;20573;-44
2024/01/14 07:00:19;;;;;;;0.00;0.00;;;28.90;40.60;;;;;;5031810;28;20203;-44
2024/01/14 07:02:50;;;;;;;0.00;0.00;;;28.90;40.70;;;;;;5032431;28;20629;-45
2024/01/14 07:05:20;;;;;;;0.00;0.00;;;28.90;40.50;;;;;;5032789;28;20196;-46
2024/01/14 07:07:52;;;;;;;0.00;0.00;;;28.90;40.50;;;;;;5032722;28;20200;-42
2024/01/14 07:10:22;;;;;;;0.00;0.00;;;28.90;40.50;;;;;;5032603;28;20270;-43
2024/01/14 07:12:55;;;;;;;0.00;0.00;;;28.90;40.50;;;;;;5032574;28;20216;-42
2024/01/14 07:15:26;;;;;;;0.00;0.00;;;29.00;40.50;;;;;;5032076;28;20192;-42
2024/01/14 07:17:57;;;;;;;0.00;0.00;;;29.00;40.50;;;;;;5031271;28;20196;-44
2024/01/14 07:20:27;;;;;;;0.00;0.00;;;29.00;40.40;;;;;;5031511;28;20208;-42
2024/01/14 07:22:58;;;;;;;0.00;0.00;;;29.00;40.40;;;;;;5031190;28;20274;-45
2024/01/14 07:25:29;;;;;;;0.00;0.00;;;29.00;40.40;;;;;;5031636;28;20207;-45
2024/01/14 07:28:02;;;;;;;0.00;0.00;;;29.00;40.40;;;;;;5031952;28;20214;-44
2024/01/14 07:30:32;;;;;;;0.00;0.00;;;29.00;39.80;;;;;;5026218;28;20598;-46
2024/01/14 07:33:03;;;;;;;0.00;0.00;;;29.00;39.70;;;;;;5026674;28;20216;-43
2024/01/14 07:35:34;;;;;;;0.00;0.00;;;29.00;39.70;;;;;;5027945;28;20204;-44
2024/01/14 07:38:04;;;;;;;0.00;0.00;;;29.00;39.80;;;;;;5027655;28;20211;-45
2024/01/14 07:40:35;;;;;;;0.00;0.00;;;28.90;39.80;;;;;;5025051;28;20188;-42
2024/01/14 07:43:08;;;;;;;0.00;0.00;;;28.90;40.60;;;;;;5027632;28;20292;-45
2024/01/14 07:45:38;;;;;;;0.00;0.00;;;28.90;40.10;;;;;;5028014;28;20204;-41
2024/01/14 07:48:09;;;;;;;0.00;0.00;;;28.90;40.10;;;;;;5027011;28;20207;-44
2024/01/14 07:50:40;;;;;;;0.00;0.00;;;28.90;40.10;;;;;;5025863;28;20228;-45
2024/01/14 07:53:13;;;;;;;0.00;0.00;;;28.90;40.10;;;;;;5027845;28;20228;-44
2024/01/14 07:55:44;;;;;;;0.00;0.00;;;28.90;40.20;;;;;;5027606;28;20196;-43
2024/01/14 07:58:16;;;;;;;0.00;0.00;;;28.90;40.20;;;;;;5028403;28;20290;-42
2024/01/14 08:00:47;;;;;;;0.00;0.00;;;28.90;40.20;;;;;;5027962;28;20211;-42
2024/01/14 08:03:18;;;;;;;0.00;0.00;;;28.90;40.10;;;;;;5027573;28;20270;-41
2024/01/14 08:05:49;;;;;;;0.00;0.00;;;28.90;40.10;;;;;;5027460;28;20715;-43
2024/01/14 08:08:19;;;;;;;0.00;0.00;;;28.90;40.10;;;;;;5027319;28;20208;-41
2024/01/14 08:10:51;;;;;;;0.00;0.00;;;28.90;40.00;;;;;;5027344;28;20228;-46
2024/01/14 08:13:23;;;;;;;0.00;0.00;;;28.90;39.80;;;;;;5027806;28;20291;-42
2024/01/14 08:15:54;;;;;;;0.00;0.00;;;28.90;39.70;;;;;;5027602;28;20266;-44
2024/01/14 08:18:24;;;;;;;0.00;0.00;;;28.90;39.80;;;;;;5026898;28;20200;-41
2024/01/14 08:20:55;;;;;;;0.00;0.00;;;28.90;39.70;;;;;;5027479;28;20215;-42
2024/01/14 08:23:26;;;;;;;0.00;0.00;;;28.80;40.20;;;;;;5027797;28;20204;-43
2024/01/14 08:25:57;;;;;;;0.00;0.00;;;28.80;39.60;;;;;;5027758;28;20311;-42
2024/01/14 08:28:30;;;;;;;0.00;0.00;;;28.70;39.60;;;;;;5028054;28;20227;-42
2024/01/14 08:31:01;;;;;;;0.00;0.00;;;28.80;39.60;;;;;;5027239;28;20258;-44
2024/01/14 08:33:31;;;;;;;0.00;0.00;;;28.70;39.50;;;;;;5027570;28;20203;-43
2024/01/14 08:36:02;;;;;;;0.00;0.00;;;28.70;39.50;;;;;;5026576;28;20196;-41
2024/01/14 08:38:33;;;;;;;0.00;0.00;;;28.70;39.50;;;;;;5027839;28;20211;-40
2024/01/14 08:41:05;;;;;;;0.00;0.00;;;28.70;39.60;;;;;;5027343;28;20200;-44
2024/01/14 08:43:37;;;;;;;0.00;0.00;;;28.70;39.70;;;;;;5027265;28;20200;-41
2024/01/14 08:46:08;;;;;;;0.00;0.00;;;28.60;39.50;;;;;;5030351;28;20218;-40
2024/01/14 08:48:38;;;;;;;0.00;0.00;;;28.60;39.60;;;;;;5030354;28;20223;-44
2024/01/14 08:51:13;;;;;;;0.00;0.00;;;28.60;39.60;;;;;;5031510;28;20254;-44
2024/01/14 08:53:44;;;;;;;0.00;0.00;;;28.60;39.70;;;;;;5031779;28;20208;-45
2024/01/14 08:56:13;;;;;;;0.00;0.00;;;28.60;39.80;;;;;;5031277;28;20200;-44
2024/01/14 08:58:45;;;;;;;0.00;0.00;;;28.60;39.80;;;;;;5030991;28;20188;-40
2024/01/14 09:01:17;;;;;;;0.00;0.00;;;28.60;39.80;;;;;;5031701;28;20231;-40
2024/01/14 09:03:48;;;;;;;0.00;0.00;;;28.60;39.90;;;;;;5031129;28;20455;-41
2024/01/14 09:06:19;;;;;;;0.00;0.00;;;28.60;39.90;;;;;;5031079;28;20679;-41
2024/01/14 09:08:49;;;;;;;0.00;0.00;;;28.60;39.80;;;;;;5031910;28;20200;-40
2024/01/14 09:11:20;;;;;;;0.00;0.00;;;28.50;39.70;;;;;;5031249;28;20242;-40
2024/01/14 09:13:52;;;;;;;0.00;0.00;;;28.50;39.70;;;;;;5031280;28;20204;-40
2024/01/14 09:16:23;;;;;;;0.00;0.00;;;28.50;39.70;;;;;;5030414;28;20204;-41
2024/01/14 09:18:54;;;;;;;0.00;0.00;;;28.50;39.70;;;;;;5030914;28;20587;-41
2024/01/14 09:21:25;;;;;;;0.00;0.00;;;28.50;40.30;;;;;;5030834;28;20313;-40
2024/01/14 09:23:55;;;;;;;0.00;0.00;;;28.40;39.60;;;;;;5030185;28;20554;-40
2024/01/14 09:26:26;;;;;;;0.00;0.00;;;28.40;39.50;;;;;;5013392;28;20680;-41
2024/01/14 09:28:58;;;;;;;0.00;0.00;;;28.40;39.50;;;;;;5024086;28;20207;-46
2024/01/14 09:31:31;;;;;;;0.00;0.00;;;28.40;39.50;;;;;;5030788;28;20232;-48
2024/01/14 09:34:02;;;;;;;0.00;0.00;;;28.30;39.40;;;;;;5030562;28;20207;-46
2024/01/14 09:36:33;;;;;;;0.00;0.00;;;28.30;39.40;;;;;;5029871;28;20203;-47
2024/01/14 09:39:03;;;;;;;0.00;0.00;;;28.30;39.40;;;;;;5030762;28;20211;-43
2024/01/14 09:41:42;;;;;;;0.00;0.00;;;28.20;39.30;;;;;;5030827;28;20224;-46
2024/01/14 09:44:17;;;;;;;0.00;0.00;;;28.30;39.30;;;;;;5030174;28;20287;-43
2024/01/14 09:46:49;;;;;;;0.00;0.00;;;28.20;39.30;;;;;;5030016;28;20192;-47
2024/01/14 09:49:22;;;;;;;0.00;0.00;;;28.20;39.30;;;;;;5029505;28;20207;-46
2024/01/14 09:51:55;;;;;;;0.00;0.00;;;28.20;39.30;;;;;;5030507;28;20311;-44
2024/01/14 09:54:26;;;;;;;0.00;0.00;;;28.20;39.30;;;;;;5030050;28;20200;-44
2024/01/14 09:56:57;;;;;;;0.00;0.00;;;28.20;39.30;;;;;;5030137;28;20660;-42
2024/01/14 09:59:32;;;;;;;0.00;0.00;;;28.10;39.30;;;;;;5029984;28;20204;-42
2024/01/14 10:02:04;;;;;;;0.00;0.00;;;28.20;39.40;;;;;;5030117;28;20250;-41
2024/01/14 10:04:34;;;;;;;0.00;0.00;;;28.10;39.40;;;;;;5030081;28;20652;-40
2024/01/14 10:07:05;;;;;;;0.00;0.00;;;28.10;39.40;;;;;;5029527;28;20200;-41
2024/01/14 10:09:36;;;;;;;0.00;0.00;;;28.10;39.40;;;;;;5030122;28;20674;-40
2024/01/14 10:12:07;;;;;;;0.00;0.00;;;28.10;39.50;;;;;;5029371;28;20220;-40
2024/01/14 10:14:42;;;;;;;0.00;0.00;;;28.10;39.50;;;;;;5029754;28;20234;-46
2024/01/14 10:17:15;;;;;;;0.00;0.00;;;28.10;39.50;;;;;;5029847;28;20199;-43
2024/01/14 10:19:53;;;;;;;0.00;0.00;;;28.10;39.50;;;;;;5029319;28;20207;-43
2024/01/14 10:22:24;;;;;;;0.00;0.00;;;28.00;39.40;;;;;;5029714;28;20238;-42
2024/01/14 10:24:58;;;;;;;0.00;0.00;;;28.00;39.40;;;;;;5033381;28;20201;-44
2024/01/14 10:27:30;;;;;;;0.00;0.00;;;28.00;39.50;;;;;;5033207;28;20553;-45
2024/01/14 10:30:03;;;;;;;0.00;0.00;;;28.00;39.50;;;;;;5033630;28;20251;-44
2024/01/14 10:32:35;;;;;;;0.00;0.00;;;28.00;39.50;;;;;;5033186;28;20250;-41
2024/01/14 10:35:12;;;;;;;0.00;0.00;;;28.00;39.50;;;;;;5033354;28;20664;-42
2024/01/14 10:37:43;;;;;;;0.00;0.00;;;27.90;39.60;;;;;;5033394;28;20195;-40
2024/01/14 10:40:16;;;;;;;0.00;0.00;;;28.00;39.60;;;;;;5033477;28;20206;-41
2024/01/14 10:42:47;;;;;;;0.00;0.00;;;27.90;39.60;;;;;;5033544;28;20243;-42
2024/01/14 10:45:19;;;;;;;0.00;0.00;;;27.90;39.60;;;;;;5033269;28;20428;-41
2024/01/14 10:47:53;;;;;;;0.00;0.00;;;27.90;39.70;;;;;;5033087;28;20211;-44
2024/01/14 10:50:26;;;;;;;0.00;0.00;;;27.90;39.70;;;;;;5032431;28;21469;-41
2024/01/14 10:52:59;;;;;;;0.00;0.00;;;27.90;39.80;;;;;;5030784;28;20204;-45
2024/01/14 10:55:42;;;;;;;0.00;0.00;;;27.80;39.80;;;;;;5032315;28;20200;-41
2024/01/14 10:58:20;;;;;;;0.00;0.00;;;27.90;39.80;;;;;;5029557;28;20228;-41
2024/01/14 11:00:54;;;;;;;0.00;0.00;;;27.80;39.80;;;;;;5032628;28;20188;-45
2024/01/14 11:03:25;;;;;;;0.00;0.00;;;27.80;39.80;;;;;;5032432;28;20203;-42
2024/01/14 11:05:56;;;;;;;0.00;0.00;;;27.80;39.90;;;;;;5029908;28;20192;-41
2024/01/14 11:08:27;;;;;;;0.00;0.00;;;27.80;39.90;;;;;;5031726;28;20200;-42
2024/01/14 11:10:59;;;;;;;0.00;0.00;;;27.80;40.00;;;;;;5032277;28;20639;-46
2024/01/14 11:13:33;;;;;;;0.00;0.00;;;27.80;40.00;;;;;;5032185;28;20188;-44
2024/01/14 11:16:12;;;;;;;0.00;0.00;;;27.80;40.00;;;;;;5031904;28;20191;-40
2024/01/14 11:18:45;;;;;;;0.00;0.00;;;27.80;40.00;;;;;;5030647;28;20188;-44
2024/01/14 11:21:33;;;;;;;0.00;0.00;;;27.80;40.10;;;;;;5029844;28;20227;-44
2024/01/14 11:24:04;;;;;;;0.00;0.00;;;27.80;40.20;;;;;;5031034;28;20192;-43
2024/01/14 11:26:35;;;;;;;0.00;0.00;;;27.70;40.10;;;;;;5029765;28;20295;-41
2024/01/14 11:29:07;;;;;;;0.00;0.00;;;27.70;40.20;;;;;;5032105;28;20184;-44
2024/01/14 11:32:10;;;;;;;0.00;0.00;;;27.70;40.30;;;;;;5029263;28;20224;-41
2024/01/14 11:34:59;;;;;;;0.00;0.00;;;27.70;40.40;;;;;;5029851;28;20250;-42
2024/01/14 11:37:43;;;;;;;0.00;0.00;;;27.70;40.40;;;;;;5031654;28;20196;-45
2024/01/14 11:40:18;;;;;;;0.00;0.00;;;27.70;40.40;;;;;;5029715;28;20196;-41
2024/01/14 11:42:51;;;;;;;0.00;0.00;;;27.70;40.40;;;;;;5031370;28;20293;-42
2024/01/14 11:45:38;;;;;;;0.00;0.00;;;27.70;40.50;;;;;;5029318;28;20224;-44
2024/01/14 11:48:13;;;;;;;0.00;0.00;;;27.70;40.50;;;;;;5031784;28;20595;-42
2024/01/14 11:50:44;;;;;;;0.00;0.00;;;27.60;40.50;;;;;;5031390;28;20675;-41
2024/01/14 11:53:14;;;;;;;0.00;0.00;;;27.70;40.60;;;;;;5029392;28;20192;-44
2024/01/14 11:55:46;;;;;;;0.00;0.00;;;27.60;40.60;;;;;;5031280;28;20188;-44
2024/01/14 11:58:19;;;;;;;0.00;0.00;;;27.60;40.60;;;;;;5029199;28;20192;-41
2024/01/14 12:00:52;;;;;;;0.00;0.00;;;27.60;40.60;;;;;;5031621;28;20575;-41
2024/01/14 12:03:24;;;;;;;0.00;0.00;;;27.60;40.60;;;;;;5031388;28;20196;-43
2024/01/14 12:05:55;;;;;;;0.00;0.00;;;27.60;40.60;;;;;;5028754;28;20188;-41
2024/01/14 12:08:26;;;;;;;0.00;0.00;;;27.60;40.70;;;;;;5031363;28;20200;-41
2024/01/14 12:11:04;;;;;;;0.00;0.00;;;27.60;40.60;;;;;;5031783;28;20224;-44
2024/01/14 12:13:35;;;;;;;0.00;0.00;;;27.60;40.80;;;;;;5031571;28;20724;-43
2024/01/14 12:16:06;;;;;;;0.00;0.00;;;27.60;40.80;;;;;;5031191;28;20202;-41
2024/01/14 12:18:45;;;;;;;0.00;0.00;;;27.60;40.90;;;;;;5031312;28;20200;-42
2024/01/14 12:21:18;;;;;;;0.00;0.00;;;27.60;41.00;;;;;;5029917;28;20658;-45
2024/01/14 12:23:49;;;;;;;0.00;0.00;;;27.60;41.00;;;;;;5031314;28;20251;-40
2024/01/14 12:26:20;;;;;;;0.00;0.00;;;27.60;41.10;;;;;;5031102;28;20671;-43
2024/01/14 12:28:51;;;;;;;0.00;0.00;;;27.50;41.10;;;;;;5031093;28;20196;-43
2024/01/14 12:31:24;;;;;;;0.00;0.00;;;27.50;41.10;;;;;;5030769;28;20238;-45
2024/01/14 12:33:56;;;;;;;0.00;0.00;;;27.50;41.20;;;;;;5031308;28;20200;-41
2024/01/14 12:36:27;;;;;;;0.00;0.00;;;27.50;41.30;;;;;;5030861;28;20667;-41
2024/01/14 12:38:58;;;;;;;0.00;0.00;;;27.50;41.20;;;;;;5030896;28;20204;-41
2024/01/14 12:41:28;;;;;;;0.00;0.00;;;27.50;41.30;;;;;;5031277;28;20227;-40
2024/01/14 12:43:59;;;;;;;0.00;0.00;;;27.50;41.40;;;;;;5031259;28;20200;-43
2024/01/14 12:46:31;;;;;;;0.00;0.00;;;27.50;41.40;;;;;;5030818;28;20203;-42
2024/01/14 12:49:11;;;;;;;0.00;0.00;;;27.40;41.40;;;;;;5028757;28;20691;-46
2024/01/14 12:51:42;;;;;;;0.00;0.00;;;27.40;41.40;;;;;;5030738;28;20232;-42
2024/01/14 12:54:13;;;;;;;0.00;0.00;;;27.40;41.40;;;;;;5031829;28;20196;-39
2024/01/14 12:56:43;;;;;;;0.00;0.00;;;27.40;41.40;;;;;;5031146;28;20552;-44
2024/01/14 12:59:14;;;;;;;0.00;0.00;;;27.40;41.50;;;;;;5030837;28;20199;-42
2024/01/14 13:01:44;;;;;;;0.00;0.00;;;27.30;41.50;;;;;;5030500;28;20222;-42
2024/01/14 13:04:17;;;;;;;0.00;0.00;;;27.30;41.50;;;;;;5030891;28;20199;-40
2024/01/14 13:06:48;;;;;;;0.00;0.00;;;27.30;41.60;;;;;;5030801;28;20200;-43
2024/01/14 13:09:18;;;;;;;0.00;0.00;;;27.30;41.60;;;;;;5030677;28;20267;-41
2024/01/14 13:11:49;;;;;;;0.00;0.00;;;27.30;41.70;;;;;;5030697;28;20224;-42